createdAt,value
2018-08-17T14:12:53.071Z,8.5
2018-08-17T14:13:50.506Z,8.6
2018-08-17T14:14:48.386Z,8.39
2018-08-17T14:15:28.219Z,15.8
2018-08-17T14:16:30.590Z,16
2018-08-17T14:17:33.447Z,15.9
2018-08-17T14:33:11.229Z,8.1
2018-08-17T14:48:38.048Z,10.75
2018-08-17T15:04:05.381Z,11.2
2018-08-17T15:19:32.598Z,12.05
2018-08-17T15:34:43.861Z,12.200000000000001
2018-08-17T15:50:22.401Z,12.05
2018-08-17T16:05:53.530Z,12.645
2018-08-17T16:21:20.663Z,12.445
2018-08-17T16:36:47.844Z,13.7
2018-08-17T16:51:52.213Z,13.85
2018-08-17T17:07:29.032Z,14
2018-08-17T17:23:07.058Z,14.700000000000001
2018-08-17T17:38:32.967Z,15.25
2018-08-17T17:53:57.792Z,16.5
2018-08-17T18:09:22.314Z,17.75
2018-08-17T18:24:29.313Z,19.1
2018-08-17T18:40:05.120Z,20.1
2018-08-17T18:55:37.282Z,21.2
2018-08-17T19:10:54.077Z,21.9
2018-08-17T19:26:16.379Z,22.5
2018-08-17T19:41:24.701Z,23.450000000000003
2018-08-17T19:56:58.328Z,24.15
2018-08-17T20:12:23.105Z,25.049999999999997
2018-08-17T20:27:44.888Z,26.450000000000003
2018-08-17T20:43:07.201Z,27.4
2018-08-17T20:58:14.678Z,30.450000000000003
2018-08-17T21:13:48.539Z,33.35
2018-08-17T21:29:11.350Z,37.745000000000005
2018-08-17T21:44:32.778Z,41.7
2018-08-17T21:59:53.856Z,44.25
2018-08-17T22:15:02.381Z,57
2018-08-17T22:30:33.949Z,62.65
2018-08-17T22:45:52.336Z,71.15
2018-08-17T23:01:11.157Z,76.15
2018-08-17T23:16:29.289Z,82.15
2018-08-17T23:31:41.223Z,82.595
2018-08-17T23:47:04.787Z,81.9
